Time;durP1;ratioP1;P1;durP2;ratioP2;P2;SDS_P1;SDS_P2;PMS_P1;PMS_P2;Temp;Humidity;BMP_temperature;BMP_pressure;BME280_temperature;BME280_humidity;BME280_pressure;Samples;Min_cycle;Max_cycle;Signal;HPM_P1;HPM_P2
2021/12/26 00:02:09;;;;;;;4.30;2.78;;;-5.80;99.90;;;;;;5002482;28;20049;-75
2021/12/26 00:04:34;;;;;;;5.28;2.95;;;-5.80;99.90;;;;;;4982804;28;20041;-75
2021/12/26 00:07:01;;;;;;;4.65;2.67;;;-5.80;99.90;;;;;;5001435;28;20059;-75
2021/12/26 00:09:27;;;;;;;7.15;2.85;;;-5.80;99.90;;;;;;4984715;28;20044;-75
2021/12/26 00:11:53;;;;;;;6.03;3.15;;;-5.80;99.90;;;;;;4981971;28;20033;-75
2021/12/26 00:14:19;;;;;;;3.92;2.60;;;-5.90;99.90;;;;;;5008994;28;20183;-75
2021/12/26 00:16:45;;;;;;;6.65;2.20;;;-5.90;99.90;;;;;;5001255;28;20064;-76
2021/12/26 00:19:12;;;;;;;7.90;3.25;;;-5.90;99.90;;;;;;5000453;28;20045;-76
2021/12/26 00:21:38;;;;;;;4.40;2.55;;;-5.90;99.90;;;;;;4967278;28;20742;-75
2021/12/26 00:24:04;;;;;;;7.55;2.90;;;-6.00;99.90;;;;;;5001925;28;20045;-75
2021/12/26 00:26:32;;;;;;;5.15;3.05;;;-6.00;99.90;;;;;;4984645;28;20033;-75
2021/12/26 00:28:59;;;;;;;4.10;2.92;;;-4.70;99.90;;;;;;4993111;28;20041;-75
2021/12/26 00:31:25;;;;;;;6.10;3.08;;;-6.00;99.90;;;;;;5011801;28;20072;-76
2021/12/26 00:33:51;;;;;;;8.60;3.47;;;-5.90;99.90;;;;;;4993424;28;20069;-76
2021/12/26 00:36:17;;;;;;;4.53;2.85;;;-6.00;99.90;;;;;;4993855;28;20046;-75
2021/12/26 00:38:43;;;;;;;4.03;2.45;;;-6.00;99.90;;;;;;5006857;28;20041;-76
2021/12/26 00:41:09;;;;;;;3.67;2.40;;;-6.00;99.90;;;;;;4999714;28;20081;-76
2021/12/26 00:43:34;;;;;;;5.40;2.95;;;-5.60;99.90;;;;;;5000011;28;20065;-74
2021/12/26 00:46:01;;;;;;;5.70;3.63;;;-6.10;99.90;;;;;;5001847;28;20049;-76
2021/12/26 00:48:27;;;;;;;5.22;3.20;;;-6.00;99.90;;;;;;4982185;28;20623;-76
2021/12/26 00:50:53;;;;;;;4.53;3.03;;;-6.00;99.90;;;;;;5011069;28;20124;-75
2021/12/26 00:53:19;;;;;;;5.32;2.80;;;-6.00;99.90;;;;;;4980972;28;20469;-75
2021/12/26 00:55:45;;;;;;;5.20;3.13;;;-6.00;99.90;;;;;;4983008;28;20045;-76
2021/12/26 00:58:11;;;;;;;3.88;2.60;;;-5.90;99.90;;;;;;4996814;28;20045;-75
2021/12/26 01:00:42;;;;;;;7.00;3.03;;;-5.90;99.90;;;;;;4997897;28;20107;-76
2021/12/26 01:03:09;;;;;;;4.13;2.35;;;-5.90;99.90;;;;;;4999454;28;20044;-75
2021/12/26 01:05:37;;;;;;;3.13;1.80;;;-5.80;99.90;;;;;;4985353;28;20068;-74
2021/12/26 01:08:04;;;;;;;3.92;2.35;;;-5.70;99.90;;;;;;4997871;28;20041;-76
2021/12/26 01:10:38;;;;;;;4.00;2.47;;;-5.70;99.90;;;;;;4997050;28;20054;-76
2021/12/26 01:13:21;;;;;;;3.83;2.37;;;-5.70;99.90;;;;;;5020865;28;20180;-77
2021/12/26 01:15:50;;;;;;;4.93;2.03;;;-4.10;99.90;;;;;;5001336;28;20300;-77
2021/12/26 01:18:17;;;;;;;2.42;1.90;;;-6.20;99.90;;;;;;4980105;28;20033;-76
2021/12/26 01:20:52;;;;;;;5.35;2.50;;;-5.60;99.90;;;;;;4993134;28;20137;-76
2021/12/26 01:23:20;;;;;;;5.50;1.85;;;-5.70;99.90;;;;;;4995717;28;20033;-77
2021/12/26 01:25:46;;;;;;;6.00;2.10;;;-5.70;99.90;;;;;;4992730;28;20124;-76
2021/12/26 01:28:12;;;;;;;3.83;1.85;;;-5.60;99.90;;;;;;4997986;28;20041;-77
2021/12/26 01:30:38;;;;;;;4.70;2.17;;;-4.40;99.90;;;;;;5001619;28;20172;-77
2021/12/26 01:33:10;;;;;;;4.95;2.30;;;-5.60;99.90;;;;;;4994717;28;20049;-76
2021/12/26 01:35:38;;;;;;;3.08;2.38;;;-5.70;99.90;;;;;;5010415;28;20045;-77
2021/12/26 01:38:04;;;;;;;7.45;3.17;;;-5.70;99.90;;;;;;4978953;28;20136;-77
2021/12/26 01:40:34;;;;;;;4.65;2.20;;;-5.60;99.90;;;;;;5003793;28;20077;-78
2021/12/26 01:43:02;;;;;;;6.78;3.28;;;-5.60;99.90;;;;;;4996845;28;20448;-78
2021/12/26 01:45:28;;;;;;;4.85;2.85;;;-5.70;99.90;;;;;;4996085;28;20119;-77
2021/12/26 01:48:02;;;;;;;4.38;2.25;;;-5.60;99.90;;;;;;5005489;28;20501;-78
2021/12/26 01:50:29;;;;;;;4.22;2.60;;;-5.70;99.90;;;;;;5013936;28;20037;-77
2021/12/26 01:52:58;;;;;;;4.95;2.42;;;-5.70;99.90;;;;;;4991929;28;20049;-78
2021/12/26 01:55:37;;;;;;;3.58;2.20;;;-5.70;99.90;;;;;;4993441;28;20048;-78
2021/12/26 01:58:03;;;;;;;3.85;2.38;;;-5.70;99.90;;;;;;4995616;28;20049;-76
2021/12/26 02:00:30;;;;;;;3.53;1.98;;;-4.90;99.90;;;;;;5012241;28;20126;-77
2021/12/26 02:02:55;;;;;;;4.15;1.92;;;-5.70;99.90;;;;;;4996909;28;20038;-77
2021/12/26 02:05:21;;;;;;;5.00;2.47;;;-5.70;99.90;;;;;;5012279;28;20049;-78
2021/12/26 02:07:47;;;;;;;3.95;1.90;;;-5.80;99.90;;;;;;4977867;28;20493;-78
2021/12/26 02:10:13;;;;;;;3.13;2.10;;;-5.80;99.90;;;;;;5007881;28;20044;-78
2021/12/26 02:12:40;;;;;;;1.83;1.08;;;-5.90;99.90;;;;;;5010582;28;20059;-78
2021/12/26 02:15:06;;;;;;;3.75;1.98;;;-5.90;99.90;;;;;;5010961;28;20041;-76
2021/12/26 02:17:32;;;;;;;5.18;1.90;;;-6.00;99.90;;;;;;4996255;28;20033;-76
2021/12/26 02:23:16;;;;;;;7.05;2.20;;;-6.00;99.90;;;;;;5010016;28;20439;-76
2021/12/26 02:28:34;;;;;;;3.13;1.75;;;-6.10;99.90;;;;;;4986036;28;20047;-76
2021/12/26 02:31:00;;;;;;;4.47;2.40;;;-6.10;99.90;;;;;;5009444;28;20037;-76
2021/12/26 02:33:25;;;;;;;4.45;2.45;;;-6.10;99.90;;;;;;5012939;28;20052;-77
2021/12/26 02:35:53;;;;;;;3.83;2.78;;;-6.00;99.90;;;;;;4992235;28;20047;-76
2021/12/26 02:38:19;;;;;;;6.28;2.60;;;-6.10;99.90;;;;;;5008110;28;20067;-76
2021/12/26 02:40:47;;;;;;;3.60;2.05;;;-6.00;99.90;;;;;;5009782;28;20065;-76
2021/12/26 02:43:15;;;;;;;4.20;2.65;;;-6.10;99.90;;;;;;4999262;28;20115;-75
2021/12/26 02:45:42;;;;;;;5.47;2.42;;;-5.10;99.90;;;;;;5012828;28;20037;-78
2021/12/26 02:48:10;;;;;;;4.38;2.60;;;-4.80;99.90;;;;;;4987288;28;20478;-78
2021/12/26 02:50:38;;;;;;;3.33;2.38;;;-6.10;99.90;;;;;;5007507;28;20037;-77
2021/12/26 02:53:08;;;;;;;4.93;2.42;;;-6.10;99.90;;;;;;4996162;28;20076;-77
2021/12/26 02:55:34;;;;;;;3.75;2.50;;;-6.10;99.90;;;;;;5009278;28;20064;-77
2021/12/26 02:58:04;;;;;;;3.70;2.00;;;-6.10;99.90;;;;;;5012528;28;20038;-77
2021/12/26 03:00:33;;;;;;;5.03;2.35;;;-6.00;99.90;;;;;;5007697;28;20041;-77
2021/12/26 03:03:00;;;;;;;4.57;2.70;;;-6.10;99.90;;;;;;5008454;28;20037;-77
2021/12/26 03:05:30;;;;;;;2.20;1.50;;;-6.10;99.90;;;;;;4979699;28;20091;-78
2021/12/26 03:07:56;;;;;;;3.60;1.70;;;-6.10;99.90;;;;;;5010774;28;20044;-77
2021/12/26 03:10:25;;;;;;;4.00;2.35;;;-6.10;99.90;;;;;;4994205;28;20640;-76
2021/12/26 03:12:59;;;;;;;2.72;2.05;;;-6.10;99.90;;;;;;5008300;28;20057;-77
2021/12/26 03:15:26;;;;;;;3.93;2.43;;;-6.10;99.90;;;;;;4992481;28;20036;-77
2021/12/26 03:17:53;;;;;;;3.50;1.95;;;-6.00;99.90;;;;;;5006820;28;20303;-79
2021/12/26 03:20:24;;;;;;;2.92;1.80;;;-5.10;99.90;;;;;;4988984;28;20038;-77
2021/12/26 03:22:50;;;;;;;3.45;1.92;;;-6.00;99.90;;;;;;5005872;28;20087;-77
2021/12/26 03:25:18;;;;;;;2.60;1.63;;;-6.00;99.90;;;;;;4991789;28;20474;-77
2021/12/26 03:27:44;;;;;;;2.83;2.05;;;-6.00;99.90;;;;;;4991984;28;20071;-78
2021/12/26 03:30:18;;;;;;;4.72;2.03;;;-6.00;99.90;;;;;;4992408;28;21663;-78
2021/12/26 03:32:44;;;;;;;3.33;1.93;;;-6.00;99.90;;;;;;5011423;28;20033;-76
2021/12/26 03:35:11;;;;;;;3.67;1.80;;;-6.00;99.90;;;;;;5010982;28;20386;-77
2021/12/26 03:37:38;;;;;;;2.70;1.80;;;-4.40;99.90;;;;;;4980372;28;20481;-77
2021/12/26 03:40:06;;;;;;;2.13;1.63;;;-6.10;99.90;;;;;;4980136;28;20053;-77
2021/12/26 03:42:32;;;;;;;4.07;2.72;;;-6.10;99.90;;;;;;5008196;28;20135;-77
2021/12/26 03:44:58;;;;;;;2.45;1.67;;;-6.10;99.90;;;;;;5007480;28;20038;-76
2021/12/26 03:47:24;;;;;;;3.22;1.45;;;-6.10;99.90;;;;;;4990268;28;20083;-76
2021/12/26 03:49:50;;;;;;;2.80;1.92;;;-6.10;99.90;;;;;;5008800;28;20045;-76
2021/12/26 03:52:17;;;;;;;3.45;2.05;;;-6.10;99.90;;;;;;5010310;28;20044;-76
2021/12/26 03:54:43;;;;;;;3.17;2.28;;;-6.10;99.90;;;;;;5010889;28;20049;-76
2021/12/26 03:57:09;;;;;;;4.07;1.95;;;-6.10;99.90;;;;;;5004950;28;20056;-75
2021/12/26 03:59:35;;;;;;;2.00;1.55;;;-6.10;99.90;;;;;;4995272;28;20033;-77
2021/12/26 04:02:01;;;;;;;4.00;1.95;;;-6.00;99.90;;;;;;4995044;28;20037;-76
2021/12/26 04:04:26;;;;;;;6.55;2.35;;;-6.10;99.90;;;;;;4977099;28;20455;-77
2021/12/26 04:06:53;;;;;;;2.83;1.80;;;-6.10;99.90;;;;;;5009124;28;20033;-77
2021/12/26 04:09:18;;;;;;;4.32;1.90;;;-6.00;99.90;;;;;;5006385;28;20057;-78
2021/12/26 04:11:45;;;;;;;2.83;1.73;;;-4.50;99.90;;;;;;5005825;28;20124;-77
2021/12/26 04:14:16;;;;;;;5.80;1.77;;;-5.20;99.90;;;;;;5009273;28;20080;-77
2021/12/26 04:16:42;;;;;;;3.50;1.88;;;-5.60;99.90;;;;;;5003192;28;20061;-76
2021/12/26 04:19:08;;;;;;;3.30;2.25;;;-6.20;99.90;;;;;;5006385;28;20029;-76
2021/12/26 04:21:33;;;;;;;4.75;2.40;;;-6.20;99.90;;;;;;5007785;28;20076;-76
2021/12/26 04:24:00;;;;;;;4.72;2.00;;;-6.20;99.90;;;;;;5003127;28;20041;-76
2021/12/26 04:26:26;;;;;;;2.25;1.40;;;-6.20;99.90;;;;;;4990290;28;20117;-76
2021/12/26 04:28:51;;;;;;;4.00;2.53;;;-6.20;99.90;;;;;;4993767;28;20041;-76
2021/12/26 04:31:17;;;;;;;4.43;2.13;;;-6.20;99.90;;;;;;5011312;28;20516;-77
2021/12/26 04:33:43;;;;;;;4.50;2.17;;;-5.30;99.90;;;;;;5011895;28;20064;-78
2021/12/26 04:36:09;;;;;;;2.83;1.60;;;-6.20;99.90;;;;;;5009993;28;20043;-76
2021/12/26 04:38:35;;;;;;;2.72;2.05;;;-4.40;99.90;;;;;;4992517;28;20128;-76
2021/12/26 04:41:04;;;;;;;3.03;1.80;;;-6.20;99.90;;;;;;5008511;28;20080;-76
2021/12/26 04:43:33;;;;;;;2.60;1.77;;;-6.20;99.90;;;;;;5011115;28;20050;-75
2021/12/26 04:46:01;;;;;;;3.00;1.90;;;-6.30;99.90;;;;;;4989673;28;20297;-76
2021/12/26 04:48:27;;;;;;;2.92;1.63;;;-6.30;99.90;;;;;;5012206;28;20050;-76
2021/12/26 04:50:53;;;;;;;4.43;2.30;;;-6.30;99.90;;;;;;4977874;28;20048;-75
2021/12/26 04:53:18;;;;;;;2.60;1.33;;;-6.30;99.90;;;;;;5007573;28;20072;-75
2021/12/26 04:55:44;;;;;;;3.17;1.95;;;-6.40;99.90;;;;;;5011815;28;20041;-76
2021/12/26 04:58:10;;;;;;;4.07;2.13;;;-6.40;99.90;;;;;;4991309;28;20184;-75
2021/12/26 05:00:36;;;;;;;3.13;1.75;;;-6.40;99.90;;;;;;5005416;28;20041;-76
2021/12/26 05:03:04;;;;;;;3.40;2.00;;;-5.40;99.90;;;;;;4991112;28;20080;-76
2021/12/26 05:05:31;;;;;;;3.60;1.88;;;-6.40;99.90;;;;;;5024942;28;20108;-77
2021/12/26 05:07:57;;;;;;;2.65;1.60;;;-6.40;99.90;;;;;;4973580;28;20049;-77
2021/12/26 05:10:28;;;;;;;3.47;2.22;;;-6.40;99.90;;;;;;4972052;28;20457;-76
2021/12/26 05:12:58;;;;;;;4.13;2.28;;;-6.40;99.90;;;;;;4989876;28;20103;-76
2021/12/26 05:15:24;;;;;;;2.58;1.55;;;-5.70;99.90;;;;;;5012102;28;20048;-77
2021/12/26 05:17:54;;;;;;;2.78;1.90;;;-6.20;99.90;;;;;;4991916;28;20041;-77
2021/12/26 05:20:20;;;;;;;3.53;1.60;;;-6.30;99.90;;;;;;4988388;28;20416;-77
2021/12/26 05:22:48;;;;;;;5.18;2.10;;;-4.70;99.90;;;;;;5008026;28;20112;-77
2021/12/26 05:25:14;;;;;;;2.85;1.95;;;-6.30;99.90;;;;;;4986367;28;20052;-76
2021/12/26 05:27:41;;;;;;;3.10;1.75;;;-5.00;99.90;;;;;;5012007;28;20486;-76
2021/12/26 05:30:10;;;;;;;2.95;1.70;;;-6.30;99.90;;;;;;5007785;28;20961;-76
2021/12/26 05:32:35;;;;;;;2.92;1.60;;;-6.30;99.90;;;;;;4993189;28;20042;-76
2021/12/26 05:35:01;;;;;;;5.55;2.63;;;-4.60;99.90;;;;;;4999430;28;20060;-76
2021/12/26 05:37:27;;;;;;;2.45;1.80;;;-6.30;99.90;;;;;;5009303;28;20038;-76
2021/12/26 05:39:53;;;;;;;2.50;1.67;;;-4.90;99.90;;;;;;4993900;28;20744;-76
2021/12/26 05:42:19;;;;;;;2.47;1.65;;;-6.20;99.90;;;;;;5009711;28;20415;-76
2021/12/26 05:44:47;;;;;;;4.20;2.20;;;-4.90;99.90;;;;;;5009974;28;20108;-76
2021/12/26 05:47:14;;;;;;;5.75;2.30;;;-6.10;99.90;;;;;;5013102;28;20041;-75
2021/12/26 05:49:40;;;;;;;2.40;1.98;;;-6.10;99.90;;;;;;5007028;28;20052;-76
2021/12/26 05:52:06;;;;;;;1.92;1.40;;;-6.10;99.90;;;;;;5007620;28;20084;-76
2021/12/26 05:54:32;;;;;;;4.00;1.83;;;-6.20;99.90;;;;;;5009648;28;20045;-75
2021/12/26 05:56:58;;;;;;;5.90;2.10;;;-6.20;99.90;;;;;;5010328;28;20063;-76
2021/12/26 05:59:24;;;;;;;8.93;2.38;;;-6.20;99.90;;;;;;5004650;28;20038;-76
2021/12/26 06:01:50;;;;;;;1.50;1.10;;;-6.30;99.90;;;;;;4988068;28;20691;-75
2021/12/26 06:04:16;;;;;;;5.07;2.55;;;-6.30;99.90;;;;;;5005724;28;20105;-75
2021/12/26 06:06:43;;;;;;;2.45;1.88;;;-6.30;99.90;;;;;;5006191;28;20045;-76
2021/12/26 06:09:10;;;;;;;3.97;2.10;;;-6.40;99.90;;;;;;5031284;28;20115;-75
2021/12/26 06:11:37;;;;;;;4.18;2.05;;;-6.40;99.90;;;;;;5008322;28;20088;-76
2021/12/26 06:14:02;;;;;;;2.92;1.70;;;-6.40;99.90;;;;;;5010375;28;20049;-76
2021/12/26 06:16:28;;;;;;;3.58;2.10;;;-6.30;99.90;;;;;;4985244;28;20044;-76
2021/12/26 06:18:54;;;;;;;3.90;1.98;;;-5.90;99.90;;;;;;5004144;28;20083;-77
2021/12/26 06:21:20;;;;;;;3.22;1.65;;;-6.40;99.90;;;;;;5001318;28;20041;-76
2021/12/26 06:23:50;;;;;;;3.92;1.98;;;-6.40;99.90;;;;;;5010329;28;20048;-77
2021/12/26 06:26:24;;;;;;;3.03;2.00;;;-6.40;99.90;;;;;;4996635;28;20048;-77
2021/12/26 06:28:51;;;;;;;2.45;1.90;;;-6.50;99.90;;;;;;4995561;28;20381;-77
2021/12/26 06:31:18;;;;;;;3.60;2.20;;;-6.30;99.90;;;;;;5000316;28;20059;-77
2021/12/26 06:33:46;;;;;;;4.38;2.30;;;-6.50;99.90;;;;;;5014346;28;20036;-78
2021/12/26 06:36:12;;;;;;;3.40;2.28;;;-6.50;99.90;;;;;;5019741;28;20049;-78
2021/12/26 06:38:39;;;;;;;4.25;2.05;;;-6.50;99.90;;;;;;4994191;28;20045;-77
2021/12/26 06:41:07;;;;;;;2.78;2.10;;;-6.50;99.90;;;;;;4988633;28;20116;-77
2021/12/26 06:43:33;;;;;;;5.88;2.42;;;-6.40;99.90;;;;;;4985402;28;20073;-77
2021/12/26 06:45:58;;;;;;;4.07;2.53;;;-5.20;99.90;;;;;;4983840;28;20041;-76
2021/12/26 06:48:24;;;;;;;4.13;2.88;;;-6.40;99.90;;;;;;5005972;28;20051;-77
2021/12/26 06:50:51;;;;;;;3.20;1.98;;;-6.50;99.90;;;;;;5021914;28;20510;-76
2021/12/26 06:53:17;;;;;;;4.20;2.17;;;-5.70;99.90;;;;;;5011480;28;20033;-78
2021/12/26 06:55:44;;;;;;;2.63;1.88;;;-6.50;99.90;;;;;;5003271;28;20045;-77
2021/12/26 06:58:10;;;;;;;2.85;1.58;;;-6.50;99.90;;;;;;5008744;28;20045;-77
2021/12/26 07:00:36;;;;;;;6.82;2.45;;;-6.50;99.90;;;;;;4985265;28;20127;-77
2021/12/26 07:03:02;;;;;;;3.72;2.50;;;-6.50;99.90;;;;;;5007284;28;20053;-77
2021/12/26 07:05:28;;;;;;;5.25;2.72;;;-6.50;99.90;;;;;;5002843;28;20037;-77
2021/12/26 07:07:54;;;;;;;4.30;2.10;;;-6.50;99.90;;;;;;5003903;28;20057;-77
2021/12/26 07:10:20;;;;;;;3.88;2.70;;;-5.40;99.90;;;;;;4989990;28;20061;-75
2021/12/26 07:12:46;;;;;;;5.45;2.33;;;-6.50;99.90;;;;;;4986243;28;20759;-76
2021/12/26 07:15:13;;;;;;;3.85;1.83;;;-6.50;99.90;;;;;;4989861;28;20394;-76
2021/12/26 07:17:40;;;;;;;3.10;2.38;;;-6.40;99.90;;;;;;5002346;28;20044;-76
2021/12/26 07:20:08;;;;;;;5.28;2.35;;;-6.40;99.90;;;;;;4976904;28;20758;-76
2021/12/26 07:22:33;;;;;;;4.50;2.95;;;-6.50;99.90;;;;;;5005332;28;20340;-76
2021/12/26 07:24:59;;;;;;;5.57;3.08;;;-6.50;99.90;;;;;;5003032;28;20091;-76
2021/12/26 07:27:25;;;;;;;3.97;2.38;;;-6.50;99.90;;;;;;5003688;28;20605;-77
2021/12/26 07:29:51;;;;;;;5.80;2.95;;;-6.50;99.90;;;;;;5012094;28;20042;-77
2021/12/26 07:32:16;;;;;;;6.43;2.72;;;-5.90;99.90;;;;;;5002100;28;20065;-77
2021/12/26 07:34:42;;;;;;;4.82;3.10;;;-4.90;99.90;;;;;;5002620;28;20048;-77
2021/12/26 07:37:08;;;;;;;3.90;2.72;;;-6.50;99.90;;;;;;5007437;28;20037;-78
2021/12/26 07:39:35;;;;;;;4.45;2.42;;;-6.50;99.90;;;;;;5011581;28;20128;-77
2021/12/26 07:42:01;;;;;;;3.30;2.15;;;-6.40;99.90;;;;;;5011520;28;20053;-77
2021/12/26 07:44:27;;;;;;;6.25;2.70;;;-6.00;99.90;;;;;;4997944;28;20145;-76
2021/12/26 07:46:53;;;;;;;6.00;2.78;;;-6.50;99.90;;;;;;5016575;28;20068;-77
2021/12/26 07:49:20;;;;;;;4.28;2.40;;;-6.50;99.90;;;;;;5013720;28;20389;-77
2021/12/26 07:51:48;;;;;;;3.53;2.45;;;-6.50;99.90;;;;;;4965489;28;20120;-76
2021/12/26 07:54:15;;;;;;;4.70;2.97;;;-6.50;99.90;;;;;;4997011;28;20095;-77
2021/12/26 07:56:41;;;;;;;4.65;3.13;;;-6.40;99.90;;;;;;4997968;28;20038;-77
2021/12/26 07:59:07;;;;;;;3.92;2.45;;;-6.50;99.90;;;;;;4980405;28;20048;-76
2021/12/26 08:01:33;;;;;;;5.40;2.58;;;-6.40;99.90;;;;;;5013755;28;20041;-75
2021/12/26 08:04:01;;;;;;;3.50;2.35;;;-6.50;99.90;;;;;;4997345;28;20417;-74
2021/12/26 08:06:31;;;;;;;4.68;2.75;;;-6.50;99.90;;;;;;5013172;28;20045;-77
2021/12/26 08:08:57;;;;;;;5.50;3.65;;;-6.50;99.90;;;;;;5013868;28;20401;-77
2021/12/26 08:11:23;;;;;;;4.55;3.13;;;-6.50;99.90;;;;;;5014853;28;20046;-77
2021/12/26 08:13:49;;;;;;;5.40;2.67;;;-6.50;99.90;;;;;;4965879;28;20042;-76
2021/12/26 08:16:15;;;;;;;5.57;2.90;;;-6.50;99.90;;;;;;5013980;28;20068;-77
2021/12/26 08:18:42;;;;;;;8.02;3.83;;;-6.30;99.90;;;;;;5017712;28;20065;-76
2021/12/26 08:21:08;;;;;;;5.65;3.53;;;-6.50;99.90;;;;;;4997016;28;20077;-76
2021/12/26 08:23:34;;;;;;;4.15;2.78;;;-6.40;99.90;;;;;;5010415;28;20183;-76
2021/12/26 08:26:00;;;;;;;4.88;3.45;;;-6.40;99.90;;;;;;4998138;28;20037;-76
2021/12/26 08:28:26;;;;;;;6.07;2.80;;;-6.40;99.90;;;;;;4996445;28;20041;-75
2021/12/26 08:30:52;;;;;;;7.10;3.65;;;-6.40;99.90;;;;;;5013358;28;20431;-78
2021/12/26 08:33:18;;;;;;;6.28;3.72;;;-6.40;99.90;;;;;;5013268;28;20041;-76
2021/12/26 08:35:48;;;;;;;5.50;3.50;;;-5.90;99.90;;;;;;4996773;28;20033;-76
2021/12/26 08:38:18;;;;;;;15.90;4.43;;;-6.10;99.90;;;;;;4996138;28;20045;-77
2021/12/26 08:40:44;;;;;;;5.63;3.60;;;-6.10;99.90;;;;;;4997068;28;20057;-77
2021/12/26 08:43:10;;;;;;;7.50;3.33;;;-6.20;99.90;;;;;;5013347;28;20389;-78
2021/12/26 08:45:37;;;;;;;6.80;3.72;;;-5.60;99.90;;;;;;5012481;28;20046;-76
2021/12/26 08:48:03;;;;;;;7.65;4.00;;;-6.10;99.90;;;;;;5013616;28;20445;-76
2021/12/26 08:50:30;;;;;;;5.95;3.70;;;-6.10;99.90;;;;;;4996078;28;20044;-73
2021/12/26 08:52:56;;;;;;;4.03;2.60;;;-5.10;99.90;;;;;;5013160;28;20038;-74
2021/12/26 08:55:24;;;;;;;5.50;3.63;;;-6.10;99.90;;;;;;5010288;28;20370;-74
2021/12/26 08:57:51;;;;;;;5.10;3.03;;;-6.00;99.90;;;;;;4997182;28;20365;-73
2021/12/26 09:00:18;;;;;;;6.15;3.90;;;-5.20;99.90;;;;;;4996818;28;20048;-74
2021/12/26 09:02:44;;;;;;;6.50;3.63;;;-5.90;99.90;;;;;;5022264;28;20561;-74
2021/12/26 09:05:11;;;;;;;4.53;3.33;;;-5.80;99.90;;;;;;5000372;28;20120;-74
2021/12/26 09:07:37;;;;;;;4.15;2.83;;;-5.80;99.90;;;;;;5017142;28;20037;-74
2021/12/26 09:10:04;;;;;;;4.97;3.13;;;-5.60;99.90;;;;;;5016711;28;20067;-74
2021/12/26 09:12:30;;;;;;;5.95;3.20;;;-5.60;99.90;;;;;;5016465;28;20033;-74
2021/12/26 09:14:56;;;;;;;5.57;3.50;;;-4.90;99.90;;;;;;4998199;28;20052;-74
2021/12/26 09:17:22;;;;;;;5.18;3.15;;;-5.40;99.90;;;;;;5014574;28;20048;-74
2021/12/26 09:19:48;;;;;;;6.40;3.70;;;-5.30;99.90;;;;;;4997894;28;20045;-74
2021/12/26 09:22:15;;;;;;;5.50;2.95;;;-4.80;99.90;;;;;;4998497;28;20041;-75
2021/12/26 09:24:42;;;;;;;4.93;3.10;;;-5.20;99.90;;;;;;5014360;28;20038;-75
2021/12/26 09:27:08;;;;;;;5.57;3.45;;;-5.00;99.90;;;;;;4999194;28;20064;-75
2021/12/26 09:29:34;;;;;;;6.22;2.92;;;-4.40;99.90;;;;;;5014549;28;20465;-76
2021/12/26 09:32:02;;;;;;;5.63;2.53;;;-3.80;99.90;;;;;;5014797;28;20029;-74
2021/12/26 09:34:29;;;;;;;4.53;3.05;;;-2.90;99.90;;;;;;5026197;28;20596;-76
2021/12/26 09:36:57;;;;;;;5.10;2.42;;;-3.10;99.90;;;;;;5007971;28;20046;-75
2021/12/26 09:39:23;;;;;;;5.47;3.03;;;-2.80;99.90;;;;;;5007003;28;20037;-75
2021/12/26 09:41:50;;;;;;;5.45;3.58;;;-2.80;99.90;;;;;;5016776;28;20069;-76
2021/12/26 09:44:16;;;;;;;5.03;2.58;;;-2.40;99.90;;;;;;5007579;28;20128;-75
2021/12/26 09:46:43;;;;;;;5.28;3.30;;;-2.40;99.90;;;;;;5010087;28;20051;-73
2021/12/26 09:49:09;;;;;;;5.30;2.60;;;-2.30;99.90;;;;;;5009412;28;20115;-74
2021/12/26 09:51:35;;;;;;;5.25;2.83;;;-2.20;99.90;;;;;;5022805;28;20041;-75
2021/12/26 09:54:02;;;;;;;4.15;2.92;;;-2.00;99.90;;;;;;4990709;28;20053;-75
2021/12/26 09:56:28;;;;;;;4.65;2.63;;;-2.00;99.70;;;;;;5007108;28;20049;-75
2021/12/26 09:59:00;;;;;;;4.15;2.22;;;-1.90;98.90;;;;;;4990950;28;20040;-75
2021/12/26 10:01:31;;;;;;;4.10;2.70;;;-2.00;93.20;;;;;;5022864;28;20075;-73
2021/12/26 10:04:14;;;;;;;4.47;2.60;;;-1.80;93.20;;;;;;5006333;28;20069;-75
2021/12/26 10:06:40;;;;;;;4.35;2.80;;;-1.60;92.70;;;;;;5020332;28;20041;-72
2021/12/26 10:09:09;;;;;;;4.32;3.05;;;-1.60;94.00;;;;;;4988749;28;20079;-74
2021/12/26 10:11:44;;;;;;;3.72;2.70;;;-1.40;93.00;;;;;;5019038;28;20103;-73
2021/12/26 10:14:14;;;;;;;4.63;2.90;;;-1.40;90.80;;;;;;5005194;28;20048;-74
2021/12/26 10:16:43;;;;;;;4.72;2.55;;;-1.50;91.50;;;;;;5006409;28;20041;-75
2021/12/26 10:19:10;;;;;;;8.07;2.60;;;-1.30;92.90;;;;;;5012053;28;20049;-72
2021/12/26 10:21:37;;;;;;;5.40;2.72;;;-1.70;91.30;;;;;;5008374;28;20041;-72
2021/12/26 10:24:25;;;;;;;4.13;2.90;;;-1.60;93.50;;;;;;5006064;28;20384;-72
2021/12/26 10:26:56;;;;;;;5.38;3.20;;;-1.90;91.60;;;;;;5005643;28;20049;-74
2021/12/26 10:29:26;;;;;;;4.80;2.47;;;-2.30;99.90;;;;;;4988176;28;20796;-74
2021/12/26 10:32:05;;;;;;;5.03;3.13;;;-2.70;99.90;;;;;;5005747;28;20601;-74
2021/12/26 10:34:49;;;;;;;4.90;2.83;;;-2.70;99.90;;;;;;5007601;28;20045;-73
2021/12/26 10:37:21;;;;;;;5.40;2.95;;;-2.90;99.90;;;;;;5007075;28;20041;-74
2021/12/26 10:39:55;;;;;;;5.22;2.85;;;-2.80;99.90;;;;;;5004535;28;20034;-73
2021/12/26 10:42:22;;;;;;;;;;;-2.70;99.90;;;;;;5006086;28;20040;-74
2021/12/26 10:45:04;;;;;;;5.32;3.38;;;-2.20;99.90;;;;;;5005343;28;19975;-73
2021/12/26 10:47:33;;;;;;;5.07;3.08;;;-1.10;99.90;;;;;;4989082;28;20059;-74
2021/12/26 10:50:07;;;;;;;6.72;3.25;;;-1.50;97.80;;;;;;5006538;28;20045;-76
2021/12/26 10:52:34;;;;;;;6.10;3.22;;;-1.20;95.60;;;;;;5022471;28;20053;-74
2021/12/26 10:55:12;;;;;;;4.68;3.17;;;-0.50;92.80;;;;;;5006659;28;20041;-74
2021/12/26 10:57:43;;;;;;;4.50;3.13;;;-0.20;88.10;;;;;;5005795;28;20037;-74
2021/12/26 11:00:12;;;;;;;6.38;3.78;;;-0.90;81.80;;;;;;5008285;28;20045;-76
2021/12/26 11:02:44;;;;;;;5.47;3.40;;;-0.40;84.10;;;;;;5010137;28;20150;-77
2021/12/26 11:05:35;;;;;;;5.15;3.67;;;0.00;77.10;;;;;;5013283;28;20044;-76
2021/12/26 11:08:03;;;;;;;5.18;3.15;;;0.30;74.50;;;;;;5000481;28;20061;-74
2021/12/26 11:10:51;;;;;;;4.53;3.30;;;0.20;71.00;;;;;;5009764;28;20049;-76
2021/12/26 11:13:26;;;;;;;5.50;3.08;;;-0.10;71.30;;;;;;5012938;28;20527;-74
2021/12/26 11:16:01;;;;;;;5.30;3.33;;;-0.30;69.70;;;;;;5013720;28;20041;-77
2021/12/26 11:18:28;;;;;;;4.43;3.38;;;-0.10;69.50;;;;;;5005437;28;20049;-75
2021/12/26 11:21:03;;;;;;;4.57;3.10;;;0.00;68.10;;;;;;5005857;28;20835;-76
2021/12/26 11:23:32;;;;;;;16.40;4.78;;;0.10;67.10;;;;;;5014247;28;20060;-75
2021/12/26 11:26:02;;;;;;;4.40;3.10;;;0.20;66.60;;;;;;5017714;28;20045;-76
2021/12/26 11:28:30;;;;;;;4.13;2.75;;;0.00;66.90;;;;;;5005634;28;20176;-75
2021/12/26 11:31:06;;;;;;;7.15;4.22;;;-0.10;68.20;;;;;;4989014;28;20038;-76
2021/12/26 11:33:32;;;;;;;;;;;0.10;70.00;;;;;;5012682;28;20044;-75
2021/12/26 11:36:03;;;;;;;4.40;2.63;;;-0.40;69.00;;;;;;5009763;28;19921;-75
2021/12/26 11:38:30;;;;;;;5.60;2.85;;;-0.70;74.20;;;;;;5006549;28;20045;-74
2021/12/26 11:41:00;;;;;;;4.30;2.60;;;-0.90;77.50;;;;;;4988679;28;20061;-75
2021/12/26 11:43:47;;;;;;;8.05;5.97;;;-0.40;75.60;;;;;;4989072;28;20042;-77
2021/12/26 11:46:32;;;;;;;7.00;2.88;;;0.20;74.50;;;;;;5005484;28;20735;-75
2021/12/26 11:49:19;;;;;;;4.30;2.78;;;0.50;69.80;;;;;;5006354;28;20151;-76
2021/12/26 11:51:59;;;;;;;4.07;2.95;;;0.60;69.70;;;;;;5003990;28;20122;-77
2021/12/26 11:54:43;;;;;;;4.90;2.72;;;0.50;70.20;;;;;;4997007;28;20584;-77
2021/12/26 11:57:27;;;;;;;3.80;2.63;;;0.20;71.60;;;;;;5004195;28;20161;-76
2021/12/26 12:00:17;;;;;;;6.90;4.60;;;0.10;73.30;;;;;;5004047;28;20041;-75
2021/12/26 12:02:52;;;;;;;5.97;3.30;;;0.40;76.60;;;;;;5003621;28;20440;-76
2021/12/26 12:05:41;;;;;;;6.38;3.13;;;0.60;73.60;;;;;;5007615;28;20045;-75
2021/12/26 12:08:15;;;;;;;4.65;2.75;;;0.30;76.00;;;;;;5003976;28;20041;-75
2021/12/26 12:10:54;;;;;;;5.20;3.03;;;0.10;76.60;;;;;;5004240;28;20665;-76
2021/12/26 12:13:26;;;;;;;4.47;3.03;;;0.00;79.80;;;;;;5007831;28;20132;-76
2021/12/26 12:15:54;;;;;;;3.90;2.30;;;-0.10;86.90;;;;;;5003155;28;20083;-75
2021/12/26 12:18:26;;;;;;;4.03;2.58;;;0.00;83.70;;;;;;5005971;28;20045;-75
2021/12/26 12:21:26;;;;;;;5.03;2.95;;;0.00;84.30;;;;;;5021023;28;20049;-76
2021/12/26 12:24:05;;;;;;;5.32;2.63;;;-0.20;91.50;;;;;;5011582;28;20044;-77
2021/12/26 12:26:49;;;;;;;4.70;2.92;;;-0.60;92.80;;;;;;5004194;28;20049;-77
2021/12/26 12:29:24;;;;;;;4.85;2.70;;;-0.70;96.30;;;;;;5005995;28;20045;-75
2021/12/26 12:32:08;;;;;;;;;;;-0.80;99.90;;;;;;5002030;28;20091;-75
2021/12/26 12:34:52;;;;;;;6.55;4.10;;;-0.90;99.90;;;;;;5003451;28;20324;-76
2021/12/26 12:37:41;;;;;;;5.77;2.90;;;-0.90;99.90;;;;;;5005956;28;20791;-75
2021/12/26 12:40:09;;;;;;;5.68;3.00;;;-1.00;99.90;;;;;;5008157;28;20330;-75
2021/12/26 12:42:36;;;;;;;5.82;3.10;;;-1.00;99.90;;;;;;5003035;28;20260;-76
2021/12/26 12:45:03;;;;;;;3.03;2.30;;;-0.90;99.90;;;;;;4983604;28;20129;-75
2021/12/26 12:47:29;;;;;;;4.72;2.53;;;-1.00;99.90;;;;;;5005699;28;20076;-75
2021/12/26 12:50:01;;;;;;;5.28;3.30;;;-0.90;99.90;;;;;;4993050;28;20076;-75
2021/12/26 12:52:47;;;;;;;4.63;2.65;;;0.20;99.90;;;;;;4987636;28;20045;-77
2021/12/26 12:55:13;;;;;;;6.60;2.35;;;0.30;99.90;;;;;;4992983;28;20049;-76
2021/12/26 12:57:43;;;;;;;4.82;2.92;;;-0.90;99.90;;;;;;4989496;28;20080;-73
2021/12/26 13:00:29;;;;;;;4.65;3.17;;;0.40;99.90;;;;;;4978559;28;20060;-73
2021/12/26 13:02:57;;;;;;;4.60;2.97;;;-0.80;99.90;;;;;;4987699;28;20049;-76